createdAt,value
2019-02-11T00:01:30.317Z,97815.43
2019-02-11T00:03:59.951Z,97810.87
2019-02-11T00:06:28.859Z,97811.34
2019-02-11T00:08:57.625Z,97811.55
2019-02-11T00:11:26.338Z,97808.40
2019-02-11T00:13:55.018Z,97807.30
2019-02-11T00:16:23.858Z,97812.84
2019-02-11T00:18:52.598Z,97815.83
2019-02-11T00:21:21.218Z,97822.55
2019-02-11T00:23:49.878Z,97821.02
2019-02-11T00:26:18.521Z,97819.12
2019-02-11T00:28:47.220Z,97823.22
2019-02-11T00:31:15.997Z,97819.68
2019-02-11T00:33:44.658Z,97812.05
2019-02-11T00:36:13.298Z,97818.08
2019-02-11T00:38:41.977Z,97804.27
2019-02-11T00:41:10.838Z,97797.55
2019-02-11T00:43:39.477Z,97799.17
2019-02-11T00:46:08.159Z,97801.27
2019-02-11T00:48:36.838Z,97801.64
2019-02-11T00:51:05.518Z,97813.67
2019-02-11T00:53:34.206Z,97822.17
2019-02-11T00:56:02.917Z,97829.14
2019-02-11T00:58:31.577Z,97830.42
2019-02-11T01:01:00.510Z,97824.24
2019-02-11T01:03:29.277Z,97820.59
2019-02-11T01:05:57.937Z,97830.96
2019-02-11T01:08:26.599Z,97818.55
2019-02-11T01:10:55.277Z,97803.58
2019-02-11T01:13:27.824Z,97800.99
2019-02-11T01:15:54.339Z,97797.55
2019-02-11T01:18:22.997Z,97794.77
2019-02-11T01:20:51.638Z,97790.83
2019-02-11T01:23:20.317Z,97798.34
2019-02-11T01:25:48.977Z,97791.72
2019-02-11T01:28:17.638Z,97787.03
2019-02-11T01:30:46.339Z,97783.66
2019-02-11T01:33:15.017Z,97784.25
2019-02-11T01:35:43.777Z,97780.25
2019-02-11T01:38:12.517Z,97772.47
2019-02-11T01:40:41.257Z,97768.91
2019-02-11T01:43:09.917Z,97757.55
2019-02-11T01:45:38.561Z,97764.59
2019-02-11T01:48:07.259Z,97773.24
2019-02-11T01:50:35.897Z,97770.69
2019-02-11T01:53:04.537Z,97769.31
2019-02-11T01:55:33.177Z,97767.06
2019-02-11T01:58:01.839Z,97772.55
2019-02-11T02:00:30.498Z,97751.28
2019-02-11T02:02:59.117Z,97761.11
2019-02-11T02:05:27.977Z,97758.58
2019-02-11T02:07:56.597Z,97749.02
2019-02-11T02:10:25.297Z,97763.77
2019-02-11T02:12:54.023Z,97768.08
2019-02-11T02:15:22.665Z,97772.08
2019-02-11T02:17:51.417Z,97771.64
2019-02-11T02:20:20.084Z,97766.77
2019-02-11T02:22:48.758Z,97759.64
2019-02-11T02:25:17.377Z,97769.55
2019-02-11T02:27:46.037Z,97777.80
2019-02-11T02:30:14.890Z,97779.12
2019-02-11T02:32:43.549Z,97762.05
2019-02-11T02:35:12.169Z,97755.95
2019-02-11T02:37:40.856Z,97763.75
2019-02-11T02:40:10.267Z,97764.66
2019-02-11T02:42:39.038Z,97761.75
2019-02-11T02:45:09.221Z,97769.47
2019-02-11T02:47:37.850Z,97766.38
2019-02-11T02:50:08.841Z,97781.03
2019-02-11T02:52:37.541Z,97778.78
2019-02-11T02:55:07.710Z,97783.05
2019-02-11T02:57:36.330Z,97785.98
2019-02-11T03:00:09.735Z,97776.95
2019-02-11T03:02:38.453Z,97779.58
2019-02-11T03:05:08.931Z,97776.34
2019-02-11T03:07:37.580Z,97785.52
2019-02-11T03:10:10.790Z,97779.64
2019-02-11T03:12:39.428Z,97778.41
2019-02-11T03:15:10.408Z,97778.41
2019-02-11T03:17:39.122Z,97770.67
2019-02-11T03:20:11.469Z,97763.22
2019-02-11T03:22:40.118Z,97776.39
2019-02-11T03:25:09.391Z,97775.39
2019-02-11T03:27:38.022Z,97783.27
2019-02-11T03:30:09.472Z,97789.09
2019-02-11T03:32:38.298Z,97816.40
2019-02-11T03:35:07.059Z,97780.70
2019-02-11T03:37:35.793Z,97783.46
2019-02-11T03:40:06.139Z,97785.46
2019-02-11T03:42:34.821Z,97792.90
2019-02-11T03:45:03.810Z,97792.09
2019-02-11T03:47:32.510Z,97792.18
2019-02-11T03:50:01.139Z,97804.02
2019-02-11T03:52:29.832Z,97800.74
2019-02-11T03:54:58.480Z,97794.18
2019-02-11T03:57:27.178Z,97794.27
2019-02-11T03:59:55.914Z,97786.09
2019-02-11T04:02:24.613Z,97797.96
2019-02-11T04:04:53.250Z,97801.40
2019-02-11T04:07:21.950Z,97809.49
2019-02-11T04:09:50.590Z,97801.62
2019-02-11T04:12:19.673Z,97794.62
2019-02-11T04:14:48.329Z,97800.64
2019-02-11T04:17:17.019Z,97797.80
2019-02-11T04:19:45.711Z,97811.44
2019-02-11T04:22:14.434Z,97812.05
2019-02-11T04:24:43.069Z,97815.00
2019-02-11T04:27:11.689Z,97827.66
2019-02-11T04:29:40.370Z,97812.67
2019-02-11T04:32:09.008Z,97825.85
2019-02-11T04:34:37.770Z,97805.80
2019-02-11T04:37:06.432Z,97817.70
2019-02-11T04:39:35.101Z,97808.59
2019-02-11T04:42:03.787Z,97803.89
2019-02-11T04:44:34.136Z,97802.19
2019-02-11T04:47:03.030Z,97788.17
2019-02-11T04:49:31.749Z,97803.14
2019-02-11T04:52:00.394Z,97809.08
2019-02-11T04:54:29.150Z,97800.66
2019-02-11T04:56:57.769Z,97813.39
2019-02-11T04:59:26.410Z,97824.89
2019-02-11T05:01:55.070Z,97811.61
2019-02-11T05:04:23.728Z,97809.38
2019-02-11T05:06:52.475Z,97818.72
2019-02-11T05:09:21.170Z,97805.97
2019-02-11T05:11:49.871Z,97816.31
2019-02-11T05:14:18.540Z,97819.01
2019-02-11T05:16:47.293Z,97807.20
2019-02-11T05:19:15.938Z,97814.66
2019-02-11T05:21:44.620Z,97819.38
2019-02-11T05:24:13.343Z,97817.84
2019-02-11T05:26:42.071Z,97809.73
2019-02-11T05:29:10.731Z,97809.90
2019-02-11T05:31:39.450Z,97807.90
2019-02-11T05:34:08.150Z,97810.18
2019-02-11T05:36:36.832Z,97802.42
2019-02-11T05:39:06.071Z,97819.38
2019-02-11T05:41:34.750Z,97818.68
2019-02-11T05:44:05.831Z,97814.65
2019-02-11T05:46:33.811Z,97817.80
2019-02-11T05:49:02.431Z,97827.36
2019-02-11T05:51:31.091Z,97820.70
2019-02-11T05:53:59.848Z,97831.34
2019-02-11T05:56:28.489Z,97831.98
2019-02-11T05:58:57.174Z,97841.16
2019-02-11T06:01:25.892Z,97831.21
2019-02-11T06:03:54.554Z,97824.59
2019-02-11T06:06:23.198Z,97821.97
2019-02-11T06:08:51.930Z,97830.08
2019-02-11T06:11:20.573Z,97816.03
2019-02-11T06:13:49.310Z,97820.35
2019-02-11T06:16:17.950Z,97825.38
2019-02-11T06:18:46.630Z,97817.05
2019-02-11T06:21:15.279Z,97819.72
2019-02-11T06:23:44.033Z,97824.36
2019-02-11T06:26:12.670Z,97841.11
2019-02-11T06:28:41.351Z,97851.27
2019-02-11T06:31:09.999Z,97856.60
2019-02-11T06:33:38.650Z,97868.92
2019-02-11T06:36:12.452Z,97872.77
2019-02-11T06:38:37.671Z,97888.48
2019-02-11T06:41:06.354Z,97902.38
2019-02-11T06:43:35.032Z,97898.59
2019-02-11T06:46:03.712Z,97904.66
2019-02-11T06:48:32.370Z,97909.58
2019-02-11T06:51:01.130Z,97910.28
2019-02-11T06:53:29.778Z,97909.66
2019-02-11T06:55:58.470Z,97917.52
2019-02-11T06:58:27.131Z,97922.17
2019-02-11T07:00:55.750Z,97923.56
2019-02-11T07:03:24.450Z,97925.28
2019-02-11T07:05:53.153Z,97928.28
2019-02-11T07:08:21.854Z,97933.47
2019-02-11T07:10:55.609Z,97932.38
2019-02-11T07:13:20.967Z,97940.38
2019-02-11T07:15:49.631Z,97938.41
2019-02-11T07:18:18.310Z,97939.66
2019-02-11T07:20:46.971Z,97947.39
2019-02-11T07:23:15.713Z,97953.72
2019-02-11T07:25:44.350Z,97960.02
2019-02-11T07:28:13.050Z,97960.54
2019-02-11T07:30:41.730Z,97964.22
2019-02-11T07:33:10.430Z,97957.30
2019-02-11T07:35:39.073Z,97958.98
2019-02-11T07:38:07.772Z,97980.88
2019-02-11T07:40:36.439Z,97971.53
2019-02-11T07:43:06.722Z,97981.13
2019-02-11T07:45:39.992Z,98007.15
2019-02-11T07:48:08.692Z,97999.94
2019-02-11T07:50:37.330Z,98004.96
2019-02-11T07:53:05.979Z,98008.09
2019-02-11T07:55:34.732Z,98029.50
2019-02-11T07:58:03.449Z,98038.63
2019-02-11T08:00:32.109Z,98050.71
2019-02-11T08:03:00.751Z,98063.43
2019-02-11T08:05:29.436Z,98061.17
2019-02-11T08:07:58.150Z,98068.25
2019-02-11T08:10:26.822Z,98074.14
2019-02-11T08:12:55.429Z,98064.33
2019-02-11T08:15:24.110Z,98075.17
2019-02-11T08:17:52.750Z,98087.45
2019-02-11T08:20:21.450Z,98099.27
2019-02-11T08:22:50.089Z,98096.22
2019-02-11T08:25:18.798Z,98098.96
2019-02-11T08:27:47.452Z,98108.11
2019-02-11T08:30:16.241Z,98111.34
2019-02-11T08:32:44.878Z,98107.62
2019-02-11T08:35:13.509Z,98131.16
2019-02-11T08:37:42.178Z,98130.22
2019-02-11T08:40:11.212Z,98120.78
2019-02-11T08:42:39.891Z,98138.08
2019-02-11T08:45:10.450Z,98161.89
2019-02-11T08:47:39.133Z,98152.81
2019-02-11T08:50:09.389Z,98166.08
2019-02-11T08:52:38.193Z,98166.55
2019-02-11T08:55:08.309Z,98177.72
2019-02-11T08:57:36.950Z,98171.72
2019-02-11T09:00:10.490Z,98169.52
2019-02-11T09:02:39.316Z,98188.41
2019-02-11T09:05:08.203Z,98171.36
2019-02-11T09:07:36.871Z,98187.45
2019-02-11T09:10:11.084Z,98189.22
2019-02-11T09:12:39.682Z,98173.98
2019-02-11T09:15:10.850Z,98191.89
2019-02-11T09:17:39.470Z,98210.11
2019-02-11T09:20:10.283Z,98218.99
2019-02-11T09:22:38.929Z,98218.14
2019-02-11T09:25:10.052Z,98215.46
2019-02-11T09:27:38.690Z,98229.52
2019-02-11T09:30:16.083Z,98217.66
2019-02-11T09:32:44.732Z,98224.13
2019-02-11T09:35:13.354Z,98240.05
2019-02-11T09:37:42.050Z,98249.14
2019-02-11T09:40:15.552Z,98242.70
2019-02-11T09:42:44.231Z,98257.36
2019-02-11T09:45:21.691Z,98249.14
2019-02-11T09:47:50.371Z,98254.06
2019-02-11T09:50:25.021Z,98233.20
2019-02-11T09:52:53.691Z,98277.36
2019-02-11T09:55:25.310Z,98289.74
2019-02-11T09:57:53.973Z,98305.25
2019-02-11T10:00:22.671Z,98300.86
2019-02-11T10:02:51.311Z,98301.92
2019-02-11T10:05:20.016Z,98305.48
2019-02-11T10:07:48.729Z,98318.69
2019-02-11T10:10:17.410Z,98314.69
2019-02-11T10:12:46.053Z,98323.37
2019-02-11T10:15:14.750Z,98331.05
2019-02-11T10:17:43.410Z,98335.58
2019-02-11T10:20:13.588Z,98335.97
2019-02-11T10:22:42.229Z,98343.33
2019-02-11T10:25:14.189Z,98353.55
2019-02-11T10:27:42.849Z,98355.50
2019-02-11T10:30:13.430Z,98358.27
2019-02-11T10:32:42.070Z,98358.08
2019-02-11T10:35:12.274Z,98357.78
2019-02-11T10:37:40.970Z,98354.31
2019-02-11T10:40:11.673Z,98364.28
2019-02-11T10:42:40.389Z,98362.42
2019-02-11T10:45:11.749Z,98366.27
2019-02-11T10:47:40.914Z,98375.69
2019-02-11T10:50:12.390Z,98385.23
2019-02-11T10:52:41.091Z,98377.85
2019-02-11T10:55:14.676Z,98382.72
2019-02-11T10:57:43.469Z,98386.61
2019-02-11T11:00:14.908Z,98396.38
2019-02-11T11:02:43.551Z,98395.50
2019-02-11T11:05:13.230Z,98404.22
2019-02-11T11:07:41.872Z,98408.87
2019-02-11T11:10:13.508Z,98410.36
2019-02-11T11:12:42.126Z,98431.49
2019-02-11T11:15:11.210Z,98411.23
2019-02-11T11:17:39.930Z,98422.38
2019-02-11T11:20:11.189Z,98421.06
2019-02-11T11:22:39.828Z,98440.98
2019-02-11T11:25:09.591Z,98419.27
2019-02-11T11:27:38.258Z,98439.33
2019-02-11T11:30:13.290Z,98438.23
2019-02-11T11:32:42.430Z,98438.14
2019-02-11T11:35:11.110Z,98449.65
2019-02-11T11:37:39.771Z,98450.67
2019-02-11T11:40:19.038Z,98467.34
2019-02-11T11:42:47.748Z,98463.06
2019-02-11T11:45:22.509Z,98461.72
2019-02-11T11:47:51.191Z,98446.55
2019-02-11T11:50:19.831Z,98458.66
2019-02-11T11:52:48.510Z,98457.36
2019-02-11T11:55:19.734Z,98476.02
2019-02-11T11:57:48.513Z,98474.32
2019-02-11T12:00:28.391Z,98494.85
2019-02-11T12:03:02.918Z,98493.95
2019-02-11T12:05:27.498Z,98508.34
2019-02-11T12:07:56.236Z,98518.09
2019-02-11T12:10:24.900Z,98507.16
2019-02-11T12:12:53.690Z,98512.42
2019-02-11T12:15:24.433Z,98505.63
2019-02-11T12:17:53.159Z,98497.36
2019-02-11T12:20:21.894Z,98510.27
2019-02-11T12:22:50.673Z,98517.67
2019-02-11T12:25:19.344Z,98516.03
2019-02-11T12:27:48.077Z,98522.70
2019-02-11T12:30:24.768Z,98514.97
2019-02-11T12:32:55.497Z,98532.50
2019-02-11T12:35:23.810Z,98521.23
2019-02-11T12:37:52.530Z,98522.19
2019-02-11T12:40:21.247Z,98533.45
2019-02-11T12:42:52.700Z,98539.13
2019-02-11T12:45:22.654Z,98533.03
2019-02-11T12:47:51.396Z,98531.98
2019-02-11T12:50:20.116Z,98537.67
2019-02-11T12:52:48.820Z,98544.69
2019-02-11T12:55:18.652Z,98550.56
2019-02-11T12:57:47.481Z,98563.73
2019-02-11T13:00:21.166Z,98569.33
2019-02-11T13:02:49.897Z,98574.67
2019-02-11T13:05:22.246Z,98563.45
2019-02-11T13:07:48.980Z,98564.48
2019-02-11T13:10:20.246Z,98574.42
2019-02-11T13:12:49.341Z,98572.92
2019-02-11T13:15:42.779Z,98573.23
2019-02-11T13:17:49.917Z,98576.88
2019-02-11T13:20:19.595Z,98580.25
2019-02-11T13:22:48.590Z,98601.20
2019-02-11T13:25:18.241Z,98616.15
2019-02-11T13:27:47.262Z,98613.69
2019-02-11T13:30:24.156Z,98629.61
2019-02-11T13:32:52.927Z,98618.65
2019-02-11T13:35:21.641Z,98619.30
2019-02-11T13:37:54.867Z,98637.32
2019-02-11T13:40:20.821Z,98636.45
2019-02-11T13:42:49.466Z,98644.22
2019-02-11T13:45:21.536Z,98656.70
2019-02-11T13:47:55.888Z,98660.17
2019-02-11T13:50:23.396Z,98654.98
2019-02-11T13:52:52.347Z,98664.55
2019-02-11T13:55:21.261Z,98662.53
2019-02-11T13:57:49.929Z,98666.91
2019-02-11T14:00:22.260Z,98672.19
2019-02-11T14:02:56.313Z,98664.55
2019-02-11T14:05:25.076Z,98676.20
2019-02-11T14:07:53.929Z,98683.89
2019-02-11T14:10:22.653Z,98673.42
2019-02-11T14:12:51.438Z,98680.24
2019-02-11T14:15:21.420Z,98694.15
2019-02-11T14:18:09.445Z,98694.75
2019-02-11T14:20:28.459Z,98696.52
2019-02-11T14:22:57.752Z,98692.30
2019-02-11T14:25:42.021Z,98695.33
2019-02-11T14:27:58.304Z,98702.21
2019-02-11T14:34:01.499Z,98718.57
2019-02-11T14:36:30.838Z,98719.15
2019-02-11T14:39:00.513Z,98741.46
2019-02-11T14:41:30.043Z,98760.02
2019-02-11T14:43:59.310Z,98742.27
2019-02-11T14:46:28.758Z,98749.80
2019-02-11T14:48:58.031Z,98759.59
2019-02-11T14:51:27.626Z,98765.83
2019-02-11T14:53:58.266Z,98770.49
2019-02-11T14:56:27.747Z,98780.80
2019-02-11T14:58:56.853Z,98775.38
2019-02-11T15:01:26.347Z,98784.88
2019-02-11T15:03:55.747Z,98793.78
2019-02-11T15:06:25.586Z,98793.73
2019-02-11T15:08:54.784Z,98801.30
2019-02-11T15:11:24.266Z,98792.23
2019-02-11T15:13:53.675Z,98802.62
2019-02-11T15:16:23.266Z,98810.86
2019-02-11T15:18:52.785Z,98817.58
2019-02-11T15:21:22.185Z,98820.14
2019-02-11T15:23:51.914Z,98823.65
2019-02-11T15:26:21.506Z,98844.59
2019-02-11T15:28:51.804Z,98846.13
2019-02-11T15:31:21.057Z,98841.37
2019-02-11T15:33:50.634Z,98845.53
2019-02-11T15:36:20.225Z,98855.70
2019-02-11T15:38:49.833Z,98856.23
2019-02-11T15:41:19.340Z,98866.63
2019-02-11T15:43:48.746Z,98864.18
2019-02-11T15:46:18.346Z,98873.55
2019-02-11T15:48:47.722Z,98885.73
2019-02-11T15:51:17.746Z,98884.56
2019-02-11T15:53:47.263Z,98886.76
2019-02-11T15:56:17.065Z,98892.92
2019-02-11T15:58:46.586Z,98903.67
2019-02-11T16:01:15.865Z,98909.70
2019-02-11T16:03:46.708Z,98917.44
2019-02-11T16:06:16.226Z,98921.28
2019-02-11T16:08:45.624Z,98923.50
2019-02-11T16:11:15.103Z,98932.66
2019-02-11T16:13:44.826Z,98937.23
2019-02-11T16:16:14.425Z,98944.58
2019-02-11T16:18:51.621Z,98951.98
2019-02-11T16:21:15.275Z,98942.75
2019-02-11T16:23:44.993Z,98958.27
2019-02-11T16:26:14.586Z,98974.91
2019-02-11T16:28:44.111Z,98966.02
2019-02-11T16:31:13.847Z,98982.50
2019-02-11T16:33:43.433Z,98967.25
2019-02-11T16:36:13.316Z,98969.94
2019-02-11T16:38:43.154Z,98975.15
2019-02-11T16:41:12.757Z,98987.52
2019-02-11T16:43:42.350Z,98982.73
2019-02-11T16:46:11.863Z,98982.95
2019-02-11T16:48:41.348Z,98997.16
2019-02-11T16:51:10.745Z,98987.28
2019-02-11T16:53:40.384Z,98997.24
2019-02-11T16:56:09.793Z,99004.44
2019-02-11T16:58:39.263Z,99013.32
2019-02-11T17:01:08.784Z,99004.95
2019-02-11T17:03:38.183Z,99010.25
2019-02-11T17:06:07.874Z,99009.77
2019-02-11T17:08:37.186Z,99013.97
2019-02-11T17:11:06.713Z,99010.32
2019-02-11T17:13:36.306Z,99025.11
2019-02-11T17:16:06.114Z,99021.69
2019-02-11T17:18:36.095Z,99020.20
2019-02-11T17:21:05.624Z,99030.20
2019-02-11T17:23:35.226Z,99032.37
2019-02-11T17:26:04.825Z,99046.38
2019-02-11T17:28:34.626Z,99056.37
2019-02-11T17:31:04.474Z,99054.73
2019-02-11T17:33:34.466Z,99041.89
2019-02-11T17:36:04.070Z,99057.94
2019-02-11T17:38:33.792Z,99048.26
2019-02-11T17:41:03.514Z,99052.57
2019-02-11T17:43:32.994Z,99059.05
2019-02-11T17:46:03.425Z,99061.80
2019-02-11T17:48:34.673Z,99060.70
2019-02-11T17:51:04.385Z,99061.27
2019-02-11T17:53:35.313Z,99069.08
2019-02-11T17:56:05.116Z,99070.53
2019-02-11T17:58:34.504Z,99079.63
2019-02-11T18:01:04.632Z,99084.05
2019-02-11T18:03:33.822Z,99094.38
2019-02-11T18:06:05.382Z,99097.41
2019-02-11T18:08:36.423Z,99093.75
2019-02-11T18:11:06.001Z,99087.41
2019-02-11T18:13:35.745Z,99108.72
2019-02-11T18:16:06.154Z,99099.60
2019-02-11T18:18:36.466Z,99106.50
2019-02-11T18:21:06.385Z,99126.84
2019-02-11T18:23:38.385Z,99128.67
2019-02-11T18:26:08.777Z,99124.18
2019-02-11T18:28:38.589Z,99128.90
2019-02-11T18:31:08.191Z,99128.90
2019-02-11T18:33:37.703Z,99138.93
2019-02-11T18:36:06.906Z,99141.64
2019-02-11T18:38:36.392Z,99142.52
2019-02-11T18:41:06.298Z,99146.02
2019-02-11T18:43:35.819Z,99154.95
2019-02-11T18:46:06.849Z,99158.23
2019-02-11T18:48:39.217Z,99159.97
2019-02-11T18:51:11.377Z,99158.75
2019-02-11T18:53:44.362Z,99169.40
2019-02-11T18:56:14.115Z,99178.95
2019-02-11T18:58:44.026Z,99174.97
2019-02-11T19:01:13.785Z,99195.79
2019-02-11T19:03:43.634Z,99191.60
2019-02-11T19:06:13.433Z,99196.78
2019-02-11T19:08:43.025Z,99188.84
2019-02-11T19:11:12.865Z,99197.94
2019-02-11T19:13:42.476Z,99207.13
2019-02-11T19:16:12.195Z,99202.85
2019-02-11T19:18:41.866Z,99202.06
2019-02-11T19:21:11.385Z,99204.44
2019-02-11T19:23:40.985Z,99233.31
2019-02-11T19:26:10.704Z,99221.16
2019-02-11T19:28:41.548Z,99213.59
2019-02-11T19:31:11.144Z,99230.20
2019-02-11T19:33:40.953Z,99228.50
2019-02-11T19:36:10.754Z,99249.38
2019-02-11T19:38:40.345Z,99241.34
2019-02-11T19:41:09.864Z,99256.06
2019-02-11T19:43:39.675Z,99261.70
2019-02-11T19:46:09.273Z,99280.07
2019-02-11T19:48:38.913Z,99287.75
2019-02-11T19:51:08.506Z,99292.05
2019-02-11T19:53:38.425Z,99302.09
2019-02-11T19:56:08.116Z,99291.23
2019-02-11T19:58:37.713Z,99304.45
2019-02-11T20:01:07.354Z,99303.60
2019-02-11T20:03:36.828Z,99308.88
2019-02-11T20:06:06.554Z,99317.94
2019-02-11T20:08:36.797Z,99318.30
2019-02-11T20:11:06.544Z,99316.36
2019-02-11T20:13:36.193Z,99326.06
2019-02-11T20:16:06.113Z,99328.67
2019-02-11T20:18:36.114Z,99332.23
2019-02-11T20:21:05.633Z,99332.36
2019-02-11T20:23:35.024Z,99319.38
2019-02-11T20:26:04.905Z,99330.11
2019-02-11T20:28:35.946Z,99335.47
2019-02-11T20:31:05.357Z,99342.69
2019-02-11T20:33:34.994Z,99336.69
2019-02-11T20:36:06.106Z,99339.20
2019-02-11T20:38:36.036Z,99358.45
2019-02-11T20:41:05.518Z,99353.59
2019-02-11T20:43:35.146Z,99353.68
2019-02-11T20:46:04.954Z,99356.62
2019-02-11T20:48:34.468Z,99335.78
2019-02-11T20:51:04.553Z,99359.31
2019-02-11T20:53:34.584Z,99348.81
2019-02-11T20:56:05.234Z,99365.45
2019-02-11T20:58:35.033Z,99357.61
2019-02-11T21:01:04.842Z,99361.98
2019-02-11T21:03:34.433Z,99370.72
2019-02-11T21:06:04.155Z,99362.91
2019-02-11T21:08:33.753Z,99353.28
2019-02-11T21:11:03.150Z,99377.66
2019-02-11T21:13:32.756Z,99398.05
2019-02-11T21:16:02.345Z,99393.88
2019-02-11T21:18:31.865Z,99402.66
2019-02-11T21:21:01.666Z,99408.98
2019-02-11T21:23:31.274Z,99417.97
2019-02-11T21:26:00.681Z,99415.57
2019-02-11T21:28:30.514Z,99438.28
2019-02-11T21:31:00.105Z,99429.59
2019-02-11T21:33:29.586Z,99431.48
2019-02-11T21:35:59.106Z,99428.20
2019-02-11T21:38:28.595Z,99410.08
2019-02-11T21:40:58.026Z,99420.16
2019-02-11T21:43:27.634Z,99436.73
2019-02-11T21:45:57.233Z,99441.16
2019-02-11T21:48:27.664Z,99448.14
2019-02-11T21:50:57.345Z,99464.69
2019-02-11T21:53:26.866Z,99448.59
2019-02-11T21:55:56.548Z,99459.47
2019-02-11T21:58:25.868Z,99463.92
2019-02-11T22:01:02.060Z,99459.20
2019-02-11T22:03:26.706Z,99474.87
2019-02-11T22:05:56.305Z,99462.25
2019-02-11T22:08:25.705Z,99462.30
2019-02-11T22:10:55.025Z,99467.52
2019-02-11T22:13:24.545Z,99464.02
2019-02-11T22:15:54.026Z,99456.17
2019-02-11T22:18:31.425Z,99467.03
2019-02-11T22:21:00.824Z,99476.11
2019-02-11T22:23:30.226Z,99483.09
2019-02-11T22:25:59.504Z,99475.61
2019-02-11T22:28:29.037Z,99476.98
2019-02-11T22:30:58.306Z,99481.75
2019-02-11T22:33:27.826Z,99489.22
2019-02-11T22:35:57.106Z,99485.00
2019-02-11T22:38:26.746Z,99481.86
2019-02-11T22:43:51.226Z,99488.33
2019-02-11T22:46:20.506Z,99494.06
2019-02-11T22:48:50.027Z,99506.58
2019-02-11T22:51:19.434Z,99510.48
2019-02-11T22:53:48.827Z,99510.02
2019-02-11T22:56:18.346Z,99505.55
2019-02-11T22:58:47.546Z,99509.85
2019-02-11T23:01:20.624Z,99509.80
2019-02-11T23:03:49.917Z,99520.16
2019-02-11T23:06:19.545Z,99513.17
2019-02-11T23:08:48.906Z,99517.50
2019-02-11T23:11:18.225Z,99519.64
2019-02-11T23:13:48.026Z,99513.17
2019-02-11T23:16:17.353Z,99514.87
2019-02-11T23:18:46.747Z,99524.84
2019-02-11T23:21:16.146Z,99525.28
2019-02-11T23:23:45.546Z,99527.03
2019-02-11T23:26:14.746Z,99539.19
2019-02-11T23:28:44.146Z,99532.20
2019-02-11T23:31:13.546Z,99544.00
2019-02-11T23:33:42.946Z,99539.16
2019-02-11T23:36:12.344Z,99550.94
2019-02-11T23:38:41.746Z,99560.98
2019-02-11T23:41:11.026Z,99538.80
2019-02-11T23:43:40.426Z,99553.16
2019-02-11T23:46:10.149Z,99557.98
2019-02-11T23:48:39.546Z,99561.01
2019-02-11T23:51:08.946Z,99579.75
2019-02-11T23:53:38.346Z,99576.72
2019-02-11T23:56:07.747Z,99571.08
2019-02-11T23:58:37.347Z,99583.70
